• Join FlightAware (Why Join?)
  • Login
  • US Flag 
 
04:04PM EST


 

Airport Tracker/Info


-or-


 

Live Flight TrackerFlight Track Log ✈ SWA1021 ✈ 26-Oct-2013 ✈ KSTL - KTPA

Flight Track Log - Related Links

Times and Time Zones

All times are in EDT time to prevent confusion due to time zone crossing. See the SWA1021 flight status page for this flight to view local times or setup timezone preferences in your user account.

Time Position Orientation Groundspeed Altitude Reporting Facility
EDT Latitude Longitude Course Direction KTS MPH feet Rate Location/Type
10:43AM 38.7667 -90.4167 191° South 162 186 2,700  Level Gateway (St. Louis) TRACON
10:44AM 38.7817 -90.4508 299° West 214 246 3,900 2,220 Climbing Kansas City Center
10:45AM 38.7325 -90.5297 231° Southwest 251 289 6,800 2,700 Climbing Kansas City Center
10:46AM 38.6589 -90.5500 192° South 278 320 9,600 2,040 Climbing Kansas City Center
10:47AM 38.5728 -90.5517 181° South 309 356 11,100 1,800 Climbing Kansas City Center
10:48AM 38.4722 -90.5536 181° South 358 412 13,300 2,340 Climbing Kansas City Center
10:49AM 38.1818 -89.8931 191° South  Level Estimated
10:49AM 38.3700 -90.5572 182° South 368 423 16,000  Level Kansas City Center
10:50AM 38.2442 -90.5625 182° South 375 432 18,200 2,040 Climbing Kansas City Center
10:51AM 38.1356 -90.5661 181° South 385 443 20,200 1,800 Climbing Kansas City Center
10:52AM 38.0244 -90.5692 181° South 395 455 22,000 1,740 Climbing Kansas City Center
10:53AM 37.9256 -90.4881 147° Southeast 424 488 23,800 1,500 Climbing Kansas City Center
10:54AM 37.8281 -90.3969 144° Southeast 434 499 25,100 1,380 Climbing Kansas City Center
10:55AM 37.7269 -90.3042 144° Southeast 445 512 26,700 1,500 Climbing Kansas City Center
10:57AM 37.6253 -90.2108 144° Southeast 451 519 28,200 1,500 Climbing Kansas City Center
10:58AM 37.5019 -90.0967 144° Southeast 458 527 29,900 1,500 Climbing Kansas City Center
10:59AM 37.4047 -90.0086 144° Southeast 456 525 31,300 1,260 Climbing Kansas City Center
11:00AM 37.3047 -89.9158 144° Southeast 448 516 32,500 780 Climbing Kansas City Center
11:01AM 37.2033 -89.8247 144° Southeast 447 514 33,000 1,080 Climbing Kansas City Center
11:01AM 37.1075 -89.7378 144° Southeast 454 522 34,600 1,080 Climbing Memphis Center
11:02AM 37.0092 -89.6503 145° Southeast 449 517 35,000 180 Climbing Memphis Center
11:03AM 36.9083 -89.5578 144° Southeast 449 517 35,000  Level Memphis Center
11:04AM 36.8100 -89.4681 144° Southeast 449 517 35,000  Level Memphis Center
11:05AM 36.7092 -89.3786 145° Southeast 449 517 35,000  Level Memphis Center
11:06AM 36.6294 -89.3047 143° Southeast 449 517 35,000  Level Memphis Center
11:07AM 36.5200 -89.2053 144° Southeast 449 517 35,000  Level Memphis Center
11:08AM 36.4172 -89.1139 144° Southeast 449 517 35,000  Level Memphis Center
11:09AM 36.3161 -89.0278 146° Southeast 449 517 35,000  Level Memphis Center
11:10AM 36.2150 -88.9394 145° Southeast 449 517 35,000  Level Memphis Center
11:11AM 36.1139 -88.8514 145° Southeast 449 517 35,000  Level Memphis Center
11:12AM 36.0150 -88.7658 145° Southeast 442 509 35,000  Level Memphis Center
11:13AM 35.9136 -88.6783 145° Southeast 447 514 35,000  Level Memphis Center
11:14AM 35.8144 -88.5906 144° Southeast 447 514 35,000  Level Memphis Center
11:15AM 35.7131 -88.5033 145° Southeast 447 514 35,000  Level Memphis Center
11:16AM 35.6117 -88.4164 145° Southeast 447 514 35,000  Level Memphis Center
11:17AM 35.5039 -88.3244 145° Southeast 442 509 35,000  Level Memphis Center
11:18AM 35.4022 -88.2353 144° Southeast 442 509 35,000  Level Memphis Center
11:19AM 35.3006 -88.1539 147° Southeast 442 509 35,000  Level Memphis Center
11:20AM 35.2011 -88.0675 145° Southeast 447 514 35,000  Level Memphis Center
11:21AM 35.1014 -87.9789 144° Southeast 447 514 35,000  Level Memphis Center
11:22AM 34.9975 -87.8931 146° Southeast 453 521 35,000  Level Memphis Center
11:23AM 34.8956 -87.8100 146° Southeast 444 511 35,000  Level Memphis Center
11:24AM 34.8106 -87.7317 143° Southeast 438 504 35,000  Level Memphis Center
11:25AM 34.7064 -87.6489 147° Southeast 438 504 35,000  Level Memphis Center
11:26AM 34.6044 -87.5639 146° Southeast 438 504 35,000  Level Memphis Center
11:27AM 34.5044 -87.4789 145° Southeast 444 511 35,000  Level Memphis Center
11:29AM 34.2928 -87.3400 152° Southeast 432 497 35,000  Level Atlanta Center
11:30AM 34.1814 -87.2856 158° South 432 497 35,000  Level Atlanta Center
11:31AM 34.0814 -87.2014 145° Southeast 432 497 35,000  Level Atlanta Center
11:32AM 33.9792 -87.1150 145° Southeast 442 509 35,000  Level Atlanta Center
11:33AM 33.8789 -87.0314 145° Southeast 449 517 35,000  Level Atlanta Center
11:34AM 33.7789 -86.9453 144° Southeast 449 517 35,000  Level Atlanta Center
11:35AM 33.6764 -86.8619 146° Southeast 449 517 35,000  Level Atlanta Center
11:36AM 33.5739 -86.7764 145° Southeast 449 517 35,000  Level Atlanta Center
11:37AM 33.4714 -86.6933 146° Southeast 449 517 35,000  Level Atlanta Center
11:38AM 33.3689 -86.6083 145° Southeast 449 517 35,000  Level Atlanta Center
11:39AM 33.2600 -86.5156 145° Southeast 443 510 35,000  Level Atlanta Center
11:40AM 33.1575 -86.4308 145° Southeast 443 510 35,000  Level Atlanta Center
11:41AM 33.0544 -86.3511 147° Southeast 443 510 35,000  Level Atlanta Center
11:42AM 32.9497 -86.2642 145° Southeast 443 510 35,000  Level Atlanta Center
11:43AM 32.8469 -86.1775 145° Southeast 453 521 35,000  Level Atlanta Center
11:44AM 32.7419 -86.0936 146° Southeast 459 528 35,000  Level Atlanta Center
11:45AM 32.6511 -86.0197 146° Southeast 459 528 35,000  Level Atlanta Center
11:46AM 32.5461 -85.9361 146° Southeast 459 528 35,000  Level Atlanta Center
11:47AM 32.4306 -85.8428 146° Southeast 464 534 35,000  Level Atlanta Center
11:48AM 32.3356 -85.7669 146° Southeast 458 527 35,000  Level Atlanta Center
11:49AM 32.2325 -85.6814 145° Southeast 458 527 35,000  Level Atlanta Center
11:50AM 32.1250 -85.5986 147° Southeast 458 527 35,000  Level Atlanta Center
11:52AM 31.9175 -85.4356 146° Southeast 456 525 35,000  Level Jacksonville Center
11:53AM 31.8106 -85.3544 147° Southeast 456 525 35,000  Level Jacksonville Center
11:54AM 31.7036 -85.2783 149° Southeast 451 519 35,000  Level Jacksonville Center
11:55AM 31.5986 -85.2025 148° Southeast 446 513 35,000  Level Jacksonville Center
11:56AM 31.4914 -85.1219 147° Southeast 446 513 35,000  Level Jacksonville Center
11:57AM 31.3842 -85.0439 148° Southeast 451 519 35,000  Level Jacksonville Center
11:58AM 31.2747 -84.9683 149° Southeast 451 519 35,000  Level Jacksonville Center
11:59AM 31.1694 -84.8883 147° Southeast 451 519 35,000  Level Jacksonville Center
12:00PM 31.0497 -84.8058 149° Southeast 451 519 35,000  Level Jacksonville Center
12:01PM 30.9547 -84.7336 147° Southeast 451 519 35,000  Level Jacksonville Center
12:02PM 30.8472 -84.6567 148° Southeast 451 519 35,000  Level Jacksonville Center
12:03PM 30.7397 -84.5797 148° Southeast 451 519 35,000  Level Jacksonville Center
12:04PM 30.6219 -84.4931 148° Southeast 451 519 35,000  Level Jacksonville Center
12:05PM 30.5122 -84.4164 149° Southeast 456 525 35,000  Level Jacksonville Center
12:06PM 30.4025 -84.3400 149° Southeast 456 525 35,000  Level Jacksonville Center
12:07PM 30.2925 -84.2614 148° Southeast 461 531 35,000  Level Jacksonville Center
12:08PM 30.1828 -84.1831 148° Southeast 468 539 35,000  Level Jacksonville Center
12:09PM 30.0872 -84.1169 149° Southeast 462 532 35,000  Level Jacksonville Center
12:10PM 29.9731 -84.0628 158° South 454 522 35,000  Level Jacksonville Center
12:11PM 29.8567 -84.0158 161° South 448 516 35,000  Level Jacksonville Center
12:12PM 29.7381 -83.9714 162° South 448 516 35,000  Level Jacksonville Center
12:13PM 29.6214 -83.9247 161° South 448 516 35,000 -60 Level Jacksonville Center
12:14PM 29.5072 -83.8592 153° Southeast 448 516 34,900 -1,800 Descending Jacksonville Center
12:15PM 29.3889 -83.7603 144° Southeast 466 536 31,400 -2,760 Descending Jacksonville Center
12:16PM 29.2808 -83.6736 145° Southeast 474 545 29,400 -2,220 Descending Jacksonville Center
12:17PM 29.1769 -83.5917 145° Southeast 468 539 27,000 -2,100 Descending Jacksonville Center
12:18PM 29.0792 -83.5150 146° Southeast 449 517 25,300 -1,500 Descending Jacksonville Center
12:19PM 28.9836 -83.4408 146° Southeast 436 502 24,000 -900 Descending Jacksonville Center
12:20PM 28.8900 -83.3669 145° Southeast 423 487 23,600 -1,200 Descending Jacksonville Center
12:21PM 28.8025 -83.3000 146° Southeast 406 467 21,700 -1,980 Descending Jacksonville Center
12:22PM 28.7131 -83.2311 146° Southeast 391 450 19,700 -1,920 Descending Jacksonville Center
12:25PM 28.5000 -83.0667 146° Southeast 364 419 15,000 -1,920 Descending Tampa TRACON
12:26PM 28.4167 -83.0000 145° Southeast 356 410 13,300 -1,740 Descending Tampa TRACON
12:27PM 28.3333 -82.9500 152° Southeast 334 384 11,600 -1,380 Descending Tampa TRACON
12:28PM 28.2667 -82.9000 147° Southeast 307 353 10,600 -1,380 Descending Tampa TRACON
12:29PM 28.2000 -82.8500 147° Southeast 300 345 9,000 -1,560 Descending Tampa TRACON
12:30PM 28.1333 -82.7833 139° Southeast 295 339 7,500 -1,500 Descending Tampa TRACON
12:31PM 28.0833 -82.7167 130° Southeast 288 331 6,100 -1,320 Descending Tampa TRACON
12:32PM 28.0333 -82.6500 130° Southeast 280 322 5,100 -780 Descending Tampa TRACON
12:33PM 27.9833 -82.6167 150° Southeast 231 266 4,600 -1,140 Descending Tampa TRACON
12:34PM 27.9167 -82.6000 168° South 226 260 2,900 -1,380 Descending Tampa TRACON
12:35PM 27.9000 -82.5667 119° Southeast 173 199 2,000 -1,140 Descending Tampa TRACON
12:36PM 27.9333 -82.5500 24° Northeast 151 174 700 -1,320 Descending Tampa TRACON